Time;durP1;ratioP1;P1;durP2;ratioP2;P2;SDS_P1;SDS_P2;PMS_P1;PMS_P2;Temp;Humidity;BMP_temperature;BMP_pressure;BME280_temperature;BME280_humidity;BME280_pressure;Samples;Min_cycle;Max_cycle;Signal;HPM_P1;HPM_P2
2021/12/22 00:00:08;;;;;;;35.77;17.10;;;;;;;-1.62;100.00;101246.72;5093315;28;20576;-74
2021/12/22 00:02:36;;;;;;;39.70;17.53;;;;;;;-1.63;100.00;101260.19;5093136;28;20201;-74
2021/12/22 00:05:03;;;;;;;38.63;16.77;;;;;;;-1.61;100.00;101263.78;5077130;28;20195;-74
2021/12/22 00:07:30;;;;;;;38.83;15.23;;;;;;;-1.57;100.00;101264.91;5081832;28;20226;-73
2021/12/22 00:09:57;;;;;;;34.30;13.60;;;;;;;-1.63;100.00;101267.81;5073101;28;20685;-73
2021/12/22 00:12:24;;;;;;;21.00;12.63;;;;;;;-1.64;100.00;101268.56;5073396;28;20198;-74
2021/12/22 00:14:51;;;;;;;20.70;11.07;;;;;;;-1.86;100.00;101219.31;5073357;28;20202;-74
2021/12/22 00:17:19;;;;;;;17.77;9.27;;;;;;;-1.61;100.00;101273.94;5076167;28;20199;-73
2021/12/22 00:19:46;;;;;;;19.43;8.57;;;;;;;-1.59;100.00;101274.94;5091315;28;20211;-74
2021/12/22 00:22:12;;;;;;;10.93;7.37;;;;;;;-1.57;100.00;101282.72;5092029;28;20194;-73
2021/12/22 00:24:40;;;;;;;14.87;7.33;;;;;;;-1.55;100.00;101284.59;5080075;28;20220;-74
2021/12/22 00:27:07;;;;;;;11.93;7.43;;;;;;;-1.57;100.00;101285.25;5077291;28;20853;-73
2021/12/22 00:29:34;;;;;;;10.10;5.90;;;;;;;-1.67;100.00;101270.88;5081892;28;20209;-73
2021/12/22 00:32:10;;;;;;;11.57;6.83;;;;;;;-2.77;100.00;101064.44;5092533;28;20201;-73
2021/12/22 00:34:46;;;;;;;14.07;6.37;;;;;;;-1.74;100.00;101283.84;5092400;28;20198;-75
2021/12/22 00:37:13;;;;;;;7.73;5.70;;;;;;;-1.71;100.00;101291.72;5091227;28;20226;-74
2021/12/22 00:39:40;;;;;;;11.50;6.10;;;;;;;-1.81;100.00;101268.84;5091799;28;20198;-74
2021/12/22 00:42:08;;;;;;;7.87;5.23;;;;;;;-1.78;100.00;101309.78;5089035;28;20672;-73
2021/12/22 00:44:34;;;;;;;10.23;6.17;;;;;;;-1.65;100.00;101299.88;5087546;28;20191;-73
2021/12/22 00:47:01;;;;;;;12.03;5.40;;;;;;;-1.66;100.00;101309.91;5072185;28;20233;-74
2021/12/22 00:49:28;;;;;;;6.63;5.13;;;;;;;-1.62;100.00;101309.41;5073564;28;20599;-73
2021/12/22 00:51:56;;;;;;;4.73;4.23;;;;;;;-1.44;100.00;101308.38;5072230;28;20202;-75
2021/12/22 00:54:23;;;;;;;6.00;4.87;;;;;;;-1.59;100.00;101305.44;5071137;28;20665;-73
2021/12/22 00:56:50;;;;;;;6.20;4.57;;;;;;;-1.88;100.00;101312.31;5076952;28;20190;-74
2021/12/22 00:59:18;;;;;;;7.13;4.73;;;;;;;-1.65;100.00;101311.69;5090540;28;20225;-73
2021/12/22 01:01:45;;;;;;;8.67;4.97;;;;;;;-1.83;100.00;101283.09;5073616;28;20241;-74
2021/12/22 01:04:12;;;;;;;7.20;4.40;;;;;;;-1.66;100.00;101310.78;5071255;28;20862;-73
2021/12/22 01:06:39;;;;;;;8.53;4.17;;;;;;;-1.66;100.00;101310.78;5072389;28;20198;-74
2021/12/22 01:09:07;;;;;;;8.93;5.07;;;;;;;-1.76;100.00;101293.00;5071822;28;20219;-74
2021/12/22 01:11:34;;;;;;;6.67;4.63;;;;;;;-1.81;100.00;101309.53;5084895;28;20202;-73
2021/12/22 01:14:02;;;;;;;9.13;5.93;;;;;;;-1.79;100.00;101308.00;5092103;28;20665;-73
2021/12/22 01:16:29;;;;;;;8.00;6.10;;;;;;;-1.79;100.00;101313.09;5091781;28;20587;-75
2021/12/22 01:18:58;;;;;;;9.90;5.80;;;;;;;-1.85;100.00;101307.47;5082462;28;20190;-74
2021/12/22 01:21:35;;;;;;;9.37;6.27;;;;;;;-1.95;100.00;101294.78;5086960;28;20202;-74
2021/12/22 01:24:12;;;;;;;8.93;5.77;;;;;;;-1.91;100.00;101296.81;5071679;28;20198;-74
2021/12/22 01:26:46;;;;;;;6.87;5.67;;;;;;;-1.84;100.00;101309.28;5072614;28;20191;-73
2021/12/22 01:29:13;;;;;;;11.20;5.90;;;;;;;-1.82;100.00;101300.09;5073008;28;20804;-74
2021/12/22 01:31:41;;;;;;;7.53;5.53;;;;;;;-1.79;100.00;101302.94;5071668;28;20273;-74
2021/12/22 01:34:08;;;;;;;7.33;6.03;;;;;;;-1.85;100.00;101302.41;5071085;28;20573;-73
2021/12/22 01:36:35;;;;;;;13.37;6.47;;;;;;;-1.93;100.00;101283.09;5091594;28;20242;-74
2021/12/22 01:39:03;;;;;;;12.80;5.90;;;;;;;-2.02;100.00;101272.16;5090038;28;20194;-73
2021/12/22 01:41:30;;;;;;;8.57;6.03;;;;;;;-2.01;100.00;101284.09;5075445;28;20600;-73
2021/12/22 01:43:58;;;;;;;7.17;5.30;;;;;;;-1.94;100.00;101296.56;5072153;28;20194;-74
2021/12/22 01:49:09;;;;;;;8.83;5.37;;;;;;;-1.95;100.00;101292.22;5092117;28;20194;-74
2021/12/22 01:49:49;;;;;;;8.33;5.43;;;;;;;-1.98;100.00;101304.69;5072666;28;20309;-73
2021/12/22 01:52:16;;;;;;;8.27;5.47;;;;;;;-2.15;100.00;101260.09;5085765;28;20198;-74
2021/12/22 01:54:48;;;;;;;7.73;5.97;;;;;;;-2.06;100.00;101285.38;5084968;28;20665;-73
2021/12/22 01:57:16;;;;;;;9.23;5.47;;;;;;;-2.09;100.00;101280.03;5072780;28;20202;-74
2021/12/22 01:59:47;;;;;;;14.27;5.53;;;;;;;-2.10;100.00;101285.88;5072393;28;20699;-74
2021/12/22 02:02:15;;;;;;;8.63;5.80;;;;;;;-2.13;100.00;101283.06;5091514;28;20198;-74
2021/12/22 02:04:43;;;;;;;5.60;4.63;;;;;;;-2.30;100.00;101251.19;5090459;28;20187;-73
2021/12/22 02:07:11;;;;;;;8.87;5.60;;;;;;;-2.21;100.00;101287.50;5087729;28;20198;-74
2021/12/22 02:10:02;;;;;;;7.17;5.10;;;;;;;-2.23;100.00;101281.41;5071366;28;20191;-74
2021/12/22 02:12:33;;;;;;;6.30;5.00;;;;;;;-2.31;100.00;101284.94;5071767;28;20278;-73
2021/12/22 02:15:02;;;;;;;6.70;5.00;;;;;;;-2.37;100.00;101281.91;5073323;28;20194;-73
2021/12/22 02:17:29;;;;;;;9.10;5.27;;;;;;;-2.39;100.00;101285.94;5091487;28;20209;-74
2021/12/22 02:19:58;;;;;;;6.80;5.00;;;;;;;-2.32;100.00;101292.47;5086812;28;20233;-74
2021/12/22 02:22:27;;;;;;;10.23;4.63;;;;;;;-2.32;100.00;101290.78;5071520;28;20198;-74
2021/12/22 02:25:00;;;;;;;7.47;4.73;;;;;;;-2.43;100.00;101278.84;5086076;28;20194;-74
2021/12/22 02:27:32;;;;;;;4.60;4.20;;;;;;;-2.86;100.00;101199.81;5072509;28;20665;-74
2021/12/22 02:30:01;;;;;;;10.60;6.20;;;;;;;-2.51;100.00;101262.97;5071177;28;20700;-73
2021/12/22 02:32:57;;;;;;;60.53;24.83;;;;;;;-2.48;100.00;101276.66;5071856;28;20199;-73
2021/12/22 02:35:38;;;;;;;36.80;15.63;;;;;;;-2.53;100.00;101261.91;5070062;28;20773;-74
2021/12/22 02:38:07;;;;;;;20.00;9.03;;;;;;;-2.45;100.00;101282.00;5072647;28;20222;-73
2021/12/22 02:40:34;;;;;;;11.43;6.47;;;;;;;-2.46;100.00;101286.19;5076236;28;20199;-73
2021/12/22 02:43:05;;;;;;;11.13;5.60;;;;;;;-2.51;100.00;101277.31;5074993;28;20207;-74
2021/12/22 02:45:33;;;;;;;10.20;5.77;;;;;;;-2.67;100.00;101275.09;5080858;28;20203;-73
2021/12/22 02:48:00;;;;;;;7.13;4.80;;;;;;;-2.55;100.00;101275.25;5083157;28;20307;-73
2021/12/22 02:50:29;;;;;;;9.90;4.77;;;;;;;-2.58;100.00;101280.97;5074953;28;20245;-73
2021/12/22 02:53:04;;;;;;;7.07;4.00;;;;;;;-2.60;100.00;101271.41;5074621;28;20195;-74
2021/12/22 02:55:42;;;;;;;47.80;20.13;;;;;;;-2.36;100.00;101282.78;5082692;28;20202;-73
2021/12/22 02:58:13;;;;;;;37.63;17.67;;;;;;;-2.57;100.00;101229.41;5074961;28;20285;-73
2021/12/22 03:00:50;;;;;;;23.87;9.80;;;;;;;-2.38;100.00;101269.06;5083829;28;20267;-74
2021/12/22 03:03:30;;;;;;;35.97;13.33;;;;;;;-2.52;100.00;101268.78;5086816;28;20272;-75
2021/12/22 03:06:01;;;;;;;27.00;11.20;;;;;;;-2.51;100.00;101268.03;5080378;28;20629;-74
2021/12/22 03:08:28;;;;;;;18.87;8.70;;;;;;;-2.55;100.00;101265.09;5077452;28;20307;-75
2021/12/22 03:10:55;;;;;;;17.93;7.87;;;;;;;-2.59;100.00;101274.09;5094310;28;20684;-73
2021/12/22 03:13:23;;;;;;;19.53;9.47;;;;;;;-2.53;100.00;101274.63;5082060;28;20199;-74
2021/12/22 03:15:51;;;;;;;12.97;6.70;;;;;;;-2.59;100.00;101268.13;5074573;28;20574;-73
2021/12/22 03:18:18;;;;;;;9.13;6.37;;;;;;;-2.60;100.00;101274.84;5079121;28;20199;-74
2021/12/22 03:20:50;;;;;;;9.40;5.57;;;;;;;-2.67;100.00;101270.00;5092573;28;20210;-73
2021/12/22 03:23:20;;;;;;;17.07;9.63;;;;;;;-2.57;100.00;101269.16;5094396;28;20203;-74
2021/12/22 03:25:47;;;;;;;18.90;9.60;;;;;;;-2.57;100.00;101277.66;5094116;28;20194;-74
2021/12/22 03:28:14;;;;;;;16.83;8.10;;;;;;;-2.64;100.00;101270.28;5093781;28;20229;-74
2021/12/22 03:30:41;;;;;;;13.80;7.17;;;;;;;-2.79;100.00;101274.06;5092224;28;20209;-74
2021/12/22 03:33:08;;;;;;;17.50;8.60;;;;;;;-2.82;100.00;101283.94;5091311;28;20201;-74
2021/12/22 03:35:37;;;;;;;10.30;6.07;;;;;;;-2.67;100.00;101285.25;5081189;28;20195;-74
2021/12/22 03:38:05;;;;;;;15.47;7.60;;;;;;;-2.69;100.00;101283.34;5075223;28;20223;-73
2021/12/22 03:40:34;;;;;;;12.30;6.67;;;;;;;-2.80;100.00;101292.56;5081027;28;20205;-74
2021/12/22 03:43:01;;;;;;;10.60;5.90;;;;;;;-2.77;100.00;101287.75;5092709;28;20186;-74
2021/12/22 03:45:28;;;;;;;11.63;6.37;;;;;;;-2.82;100.00;101289.00;5088979;28;20187;-74
2021/12/22 03:47:55;;;;;;;12.23;6.20;;;;;;;-2.97;100.00;101263.94;5073753;28;20607;-73
2021/12/22 03:50:22;;;;;;;15.47;6.57;;;;;;;-3.00;100.00;101262.03;5078149;28;20183;-74
2021/12/22 03:52:49;;;;;;;15.60;6.80;;;;;;;-2.84;100.00;101293.06;5091432;28;20197;-74
2021/12/22 03:55:16;;;;;;;14.53;6.47;;;;;;;-2.84;100.00;101290.50;5081884;28;20205;-74
2021/12/22 03:57:45;;;;;;;18.73;6.70;;;;;;;-2.73;100.00;101287.25;5088204;28;20188;-73
2021/12/22 04:00:13;;;;;;;16.37;7.23;;;;;;;-2.77;100.00;101292.81;5078872;28;20199;-74
2021/12/22 04:02:41;;;;;;;15.33;7.90;;;;;;;-3.05;100.00;101246.41;5088847;28;20191;-73
2021/12/22 04:05:09;;;;;;;17.70;9.30;;;;;;;-2.83;100.00;101297.38;5092649;28;20197;-76
2021/12/22 04:07:36;;;;;;;27.40;8.80;;;;;;;-2.73;100.00;101297.41;5091389;28;20221;-73
2021/12/22 04:10:18;;;;;;;15.30;7.47;;;;;;;-2.66;100.00;101304.78;5080254;28;20222;-73
2021/12/22 04:12:47;;;;;;;18.70;7.13;;;;;;;-2.77;100.00;101295.34;5093327;28;20289;-73
2021/12/22 04:15:14;;;;;;;13.70;7.40;;;;;;;-2.75;100.00;101298.94;5093088;28;20665;-73
2021/12/22 04:17:40;;;;;;;15.30;8.73;;;;;;;-2.67;100.00;101314.81;5073048;28;20705;-73
2021/12/22 04:20:08;;;;;;;18.20;8.50;;;;;;;-2.98;100.00;101278.28;5077341;28;20225;-80
2021/12/22 04:22:35;;;;;;;17.87;8.30;;;;;;;-2.86;100.00;101302.19;5086248;28;20198;-71
2021/12/22 04:25:02;;;;;;;18.57;9.77;;;;;;;-2.85;100.00;101309.03;5086873;28;20203;-71
2021/12/22 04:27:29;;;;;;;26.50;11.27;;;;;;;-2.87;100.00;101300.41;5083167;28;20190;-71
2021/12/22 04:29:57;;;;;;;29.67;11.77;;;;;;;-3.08;100.00;101263.91;5090678;28;20230;-71
2021/12/22 04:32:24;;;;;;;28.13;11.30;;;;;;;-2.92;100.00;101316.84;5072686;28;20579;-74
2021/12/22 04:34:51;;;;;;;29.97;13.43;;;;;;;-2.92;100.00;101314.31;5072304;28;20194;-73
2021/12/22 04:37:18;;;;;;;24.70;12.57;;;;;;;-2.97;100.00;101304.53;5072382;28;20222;-73
2021/12/22 04:39:44;;;;;;;30.73;13.23;;;;;;;-2.91;100.00;101313.56;5074480;28;20618;-74
2021/12/22 04:42:11;;;;;;;85.27;26.97;;;;;;;-2.92;100.00;101324.47;5073033;28;20245;-73
2021/12/22 04:44:38;;;;;;;77.43;25.00;;;;;;;-2.91;100.00;101317.75;5072781;28;20267;-74
2021/12/22 04:47:07;;;;;;;67.37;23.10;;;;;;;-2.71;100.00;101323.78;5078047;28;20198;-74
2021/12/22 04:49:33;;;;;;;54.23;19.43;;;;;;;-2.83;100.00;101322.75;5092379;28;20646;-74
2021/12/22 04:52:03;;;;;;;39.93;14.87;;;;;;;-2.92;100.00;101306.69;5086341;28;20703;-73
2021/12/22 04:54:41;;;;;;;30.13;11.73;;;;;;;-2.80;100.00;101324.66;5090788;28;20198;-72
2021/12/22 04:57:08;;;;;;;22.43;11.13;;;;;;;-2.80;100.00;101322.13;5074550;28;20579;-73
2021/12/22 04:59:35;;;;;;;28.13;11.90;;;;;;;-2.75;100.00;101325.97;5070350;28;20244;-73
2021/12/22 05:02:02;;;;;;;27.57;12.63;;;;;;;-2.82;100.00;101332.16;5070319;28;20207;-72
2021/12/22 05:04:30;;;;;;;30.50;12.53;;;;;;;-2.90;100.00;101339.84;5086982;28;20536;-73
2021/12/22 05:06:57;;;;;;;26.70;11.70;;;;;;;-2.93;100.00;101322.72;5090454;28;20672;-73
2021/12/22 05:09:23;;;;;;;24.07;11.37;;;;;;;-2.82;100.00;101328.72;5089618;28;20214;-72
2021/12/22 05:11:52;;;;;;;22.53;11.77;;;;;;;-2.77;100.00;101333.44;5078050;28;20198;-73
2021/12/22 05:14:19;;;;;;;39.47;17.83;;;;;;;-2.98;100.00;101300.22;5072316;28;20194;-72
2021/12/22 05:16:48;;;;;;;62.97;25.50;;;;;;;-3.17;100.00;101302.78;5072135;28;20256;-72
2021/12/22 05:19:16;;;;;;;111.80;41.67;;;;;;;-3.13;100.00;101335.25;5083027;28;20723;-72
2021/12/22 05:21:45;;;;;;;96.63;35.17;;;;;;;-3.00;100.00;101333.06;5074481;28;20198;-72
2021/12/22 05:24:12;;;;;;;44.40;19.63;;;;;;;-3.09;100.00;101334.78;5078775;28;20198;-72
2021/12/22 05:26:39;;;;;;;22.23;10.50;;;;;;;-2.96;100.00;101335.09;5071741;28;20204;-72
2021/12/22 05:29:06;;;;;;;22.63;11.07;;;;;;;-2.93;100.00;101330.31;5071923;28;20229;-72
2021/12/22 05:31:33;;;;;;;37.93;23.03;;;;;;;-2.93;100.00;101340.47;5072037;28;20572;-72
2021/12/22 05:34:00;;;;;;;27.43;13.47;;;;;;;-2.93;100.00;101334.50;5071455;28;20244;-72
2021/12/22 05:36:27;;;;;;;42.27;22.03;;;;;;;-2.98;100.00;101339.16;5070764;28;20191;-72
2021/12/22 05:38:55;;;;;;;37.57;20.67;;;;;;;-2.93;100.00;101340.47;5072694;28;20195;-72
2021/12/22 05:41:23;;;;;;;39.10;21.13;;;;;;;-2.96;100.00;101341.84;5087458;28;20722;-72
2021/12/22 05:43:50;;;;;;;28.73;12.50;;;;;;;-2.86;100.00;101336.81;5071915;28;20673;-72
2021/12/22 05:46:17;;;;;;;39.33;20.47;;;;;;;-3.11;100.00;101343.91;5083495;28;20201;-72
2021/12/22 05:48:44;;;;;;;32.13;16.37;;;;;;;-2.74;100.00;101348.91;5081228;28;20313;-72
2021/12/22 05:51:11;;;;;;;21.93;11.83;;;;;;;-2.80;100.00;101343.31;5072559;28;20282;-72
2021/12/22 05:53:38;;;;;;;26.37;11.87;;;;;;;-2.77;100.00;101338.50;5083300;28;20190;-72
2021/12/22 05:56:07;;;;;;;27.90;13.93;;;;;;;-2.69;100.00;101342.59;5078948;28;20248;-72
2021/12/22 05:58:33;;;;;;;15.03;7.70;;;;;;;-2.67;100.00;101346.16;5072129;28;20190;-72
2021/12/22 06:01:00;;;;;;;9.90;6.70;;;;;;;-2.42;100.00;101339.00;5071346;28;20677;-74
2021/12/22 06:03:27;;;;;;;27.07;14.20;;;;;;;-2.26;100.00;101353.91;5078318;28;20624;-72
2021/12/22 06:05:54;;;;;;;18.63;10.03;;;;;;;-2.14;100.00;101342.28;5090063;28;20661;-72
2021/12/22 06:08:20;;;;;;;35.23;14.83;;;;;;;-2.03;100.00;101356.75;5091976;28;20285;-72
2021/12/22 06:10:47;;;;;;;28.33;13.83;;;;;;;-2.20;100.00;101347.72;5089996;28;20252;-72
2021/12/22 06:13:15;;;;;;;25.37;13.70;;;;;;;-2.06;100.00;101357.41;5092135;28;20198;-72
2021/12/22 06:15:42;;;;;;;28.17;16.43;;;;;;;-2.03;100.00;101354.22;5095150;28;20201;-72
2021/12/22 06:18:09;;;;;;;15.83;8.43;;;;;;;-1.50;100.00;101354.50;5089088;28;20677;-73
2021/12/22 06:20:36;;;;;;;50.43;25.60;;;;;;;-1.71;100.00;101352.72;5081889;28;20225;-71
2021/12/22 06:23:03;;;;;;;45.77;22.70;;;;;;;-1.82;100.00;101355.16;5089343;28;20202;-72
2021/12/22 06:25:30;;;;;;;47.30;22.93;;;;;;;-1.88;100.00;101358.06;5076734;28;20186;-73
2021/12/22 06:27:57;;;;;;;42.37;21.53;;;;;;;-1.92;100.00;101358.56;5085639;28;20202;-73
2021/12/22 06:30:25;;;;;;;48.57;22.87;;;;;;;-1.99;100.00;101343.56;5084477;28;20297;-74
2021/12/22 06:32:52;;;;;;;41.23;21.13;;;;;;;-1.87;100.00;101356.41;5077367;28;20202;-72
2021/12/22 06:35:19;;;;;;;36.43;18.57;;;;;;;-1.83;100.00;101354.25;5075482;28;20267;-73
2021/12/22 06:37:47;;;;;;;42.03;18.97;;;;;;;-1.81;100.00;101352.72;5077556;28;20218;-70
2021/12/22 06:40:14;;;;;;;55.83;23.50;;;;;;;-1.63;100.00;101356.81;5095182;28;20579;-72
2021/12/22 06:42:42;;;;;;;33.20;15.80;;;;;;;-1.56;100.00;101359.09;5081131;28;20199;-72
2021/12/22 06:45:10;;;;;;;51.53;17.33;;;;;;;-1.54;100.00;101365.22;5084183;28;20193;-72
2021/12/22 06:47:38;;;;;;;77.40;27.73;;;;;;;-1.50;100.00;101358.72;5079200;28;20190;-72
2021/12/22 06:50:07;;;;;;;56.93;24.20;;;;;;;-1.36;100.00;101377.66;5094813;28;20226;-72
2021/12/22 06:52:34;;;;;;;39.17;16.93;;;;;;;-1.22;100.00;101372.97;5094831;28;20190;-71
2021/12/22 06:55:01;;;;;;;52.00;20.10;;;;;;;-1.11;100.00;101373.84;5095098;28;20202;-72
2021/12/22 06:57:29;;;;;;;41.80;17.10;;;;;;;-1.31;100.00;101305.16;5095146;28;20213;-71
2021/12/22 06:59:58;;;;;;;81.33;33.40;;;;;;;-0.78;100.00;101384.16;5094666;28;20292;-72
2021/12/22 07:02:26;;;;;;;104.77;47.20;;;;;;;-0.71;100.00;101381.34;5095920;28;20198;-71
2021/12/22 07:04:55;;;;;;;48.37;24.50;;;;;;;-0.64;100.00;101373.44;5094073;28;20201;-72
2021/12/22 07:07:21;;;;;;;40.03;17.63;;;;;;;-0.40;100.00;101392.34;5094919;28;20202;-72
2021/12/22 07:09:48;;;;;;;27.47;15.23;;;;;;;-0.22;100.00;101385.25;5094490;28;20685;-71
2021/12/22 07:12:15;;;;;;;31.83;16.93;;;;;;;-0.16;100.00;101380.63;5094686;28;20194;-71
2021/12/22 07:14:42;;;;;;;31.37;12.67;;;;;;;-0.10;100.00;101383.63;5095050;28;20384;-71
2021/12/22 07:17:10;;;;;;;24.17;12.90;;;;;;;-0.01;100.00;101381.81;5094684;28;20244;-71
2021/12/22 07:19:37;;;;;;;20.17;10.80;;;;;;;-0.09;100.00;101382.88;5094580;28;20305;-70
2021/12/22 07:22:06;;;;;;;23.20;12.67;;;;;;;0.22;100.00;101389.56;5095345;28;20264;-72
2021/12/22 07:24:32;;;;;;;27.37;14.10;;;;;;;0.47;100.00;101387.22;5093489;28;20198;-71
2021/12/22 07:26:59;;;;;;;24.80;12.73;;;;;;;0.52;100.00;101382.47;5094412;28;20194;-72
2021/12/22 07:29:26;;;;;;;20.97;11.37;;;;;;;0.66;99.99;101377.63;5094579;28;20230;-71
2021/12/22 07:31:53;;;;;;;21.73;10.23;;;;;;;0.29;96.41;101375.59;5094251;28;20676;-71
2021/12/22 07:34:25;;;;;;;11.90;7.03;;;;;;;0.41;96.77;101390.19;5093923;28;20665;-71
2021/12/22 07:36:56;;;;;;;21.03;9.47;;;;;;;0.44;93.80;101395.53;5094325;28;20225;-72
2021/12/22 07:39:24;;;;;;;16.07;9.63;;;;;;;0.46;94.65;101388.88;5094187;28;20669;-72
2021/12/22 07:41:51;;;;;;;42.10;16.67;;;;;;;0.08;93.45;101351.03;5094524;28;20197;-72
2021/12/22 07:44:18;;;;;;;29.73;11.77;;;;;;;0.22;95.03;101396.31;5094003;28;20264;-73
2021/12/22 07:46:45;;;;;;;19.00;8.93;;;;;;;0.38;95.92;101400.19;5094516;28;20205;-71
2021/12/22 07:49:12;;;;;;;32.83;14.47;;;;;;;0.58;100.00;101405.88;5093808;28;20279;-71
2021/12/22 07:51:39;;;;;;;30.30;14.87;;;;;;;0.72;100.00;101397.59;5093986;28;20587;-71
2021/12/22 07:54:05;;;;;;;37.20;15.77;;;;;;;0.78;100.00;101400.63;5094062;28;20195;-71
2021/12/22 07:56:33;;;;;;;27.30;13.37;;;;;;;0.98;99.53;101403.88;5094117;28;20202;-71
2021/12/22 07:59:00;;;;;;;23.70;12.87;;;;;;;1.17;97.66;101402.69;5093998;28;20190;-72
2021/12/22 08:01:27;;;;;;;23.93;12.53;;;;;;;1.28;95.57;101405.25;5093635;28;20749;-71
2021/12/22 08:03:54;;;;;;;29.27;15.47;;;;;;;1.31;93.69;101374.81;5093632;28;20197;-71
2021/12/22 08:06:21;;;;;;;20.77;11.20;;;;;;;1.36;91.54;101409.22;5093025;28;20252;-72
2021/12/22 08:08:48;;;;;;;22.77;11.13;;;;;;;1.45;89.80;101404.81;5093989;28;20198;-71
2021/12/22 08:11:15;;;;;;;18.87;10.97;;;;;;;1.44;88.50;101408.13;5093522;28;20309;-71
2021/12/22 08:13:43;;;;;;;20.83;9.10;;;;;;;1.13;87.39;101406.69;5093723;28;20197;-72
2021/12/22 08:16:10;;;;;;;16.30;8.27;;;;;;;1.40;86.65;101405.22;5093741;28;20194;-72
2021/12/22 08:18:37;;;;;;;22.23;8.90;;;;;;;1.47;85.38;101408.34;5093311;28;20190;-71
2021/12/22 08:21:04;;;;;;;16.17;8.60;;;;;;;1.47;83.55;101389.56;5093331;28;20279;-73
2021/12/22 08:23:30;;;;;;;18.83;8.60;;;;;;;1.57;82.70;101409.88;5093302;28;20197;-74
2021/12/22 08:25:57;;;;;;;24.17;8.77;;;;;;;1.61;95.64;101405.88;5093008;28;20190;-73
2021/12/22 08:28:24;;;;;;;17.93;8.77;;;;;;;1.61;89.15;101413.53;5093656;28;20232;-72
2021/12/22 08:30:52;;;;;;;17.70;7.43;;;;;;;1.62;84.36;101415.31;5093313;28;20230;-73
2021/12/22 08:33:23;;;;;;;13.57;6.67;;;;;;;1.36;83.85;101414.34;5092931;28;20209;-72
2021/12/22 08:38:54;;;;;;;16.50;9.77;;;;;;;1.21;89.96;101422.56;5092846;28;20229;-72
2021/12/22 08:41:23;;;;;;;22.87;10.27;;;;;;;1.24;92.05;101423.69;5092856;28;20194;-72
2021/12/22 08:43:50;;;;;;;19.67;11.17;;;;;;;1.38;92.94;101420.47;5092896;28;20737;-73
2021/12/22 08:46:19;;;;;;;19.07;10.93;;;;;;;1.52;93.52;101421.47;5092722;28;20669;-73
2021/12/22 08:48:46;;;;;;;22.67;10.90;;;;;;;1.45;94.39;101415.03;5092685;28;20687;-71
2021/12/22 08:51:13;;;;;;;27.30;11.67;;;;;;;1.56;93.53;101420.91;5092898;28;20298;-72
2021/12/22 08:53:40;;;;;;;21.60;9.33;;;;;;;1.52;91.60;101412.91;5093020;28;20251;-72
2021/12/22 08:56:07;;;;;;;19.70;8.70;;;;;;;1.62;88.37;101420.44;5092434;28;20248;-72
2021/12/22 08:58:34;;;;;;;17.17;9.47;;;;;;;1.69;87.45;101420.09;5092841;28;20259;-72
2021/12/22 09:01:02;;;;;;;27.57;11.50;;;;;;;1.58;86.37;101410.78;5092478;28;20198;-73
2021/12/22 09:03:32;;;;;;;44.87;18.20;;;;;;;1.55;85.30;101418.22;5092672;28;20700;-72
2021/12/22 09:05:59;;;;;;;21.70;10.83;;;;;;;1.46;84.22;101416.78;5091964;28;20190;-72
2021/12/22 09:08:26;;;;;;;23.70;9.57;;;;;;;1.41;83.43;101418.13;5092595;28;20258;-71
2021/12/22 09:10:53;;;;;;;43.83;14.90;;;;;;;1.31;84.15;101415.69;5092480;28;20244;-72
2021/12/22 09:13:20;;;;;;;28.83;11.57;;;;;;;1.47;83.20;101413.44;5092190;28;20247;-73
2021/12/22 09:15:47;;;;;;;31.50;13.30;;;;;;;1.65;82.67;101412.97;5092581;28;20289;-73
2021/12/22 09:18:14;;;;;;;24.27;9.27;;;;;;;1.79;80.02;101409.75;5092130;28;20681;-73
2021/12/22 09:20:42;;;;;;;22.87;11.00;;;;;;;1.95;75.96;101410.94;5092017;28;20221;-72
2021/12/22 09:23:09;;;;;;;21.77;10.00;;;;;;;2.16;78.68;101400.44;5092340;28;20334;-72
2021/12/22 09:25:36;;;;;;;23.70;10.20;;;;;;;2.36;75.23;101406.13;5092111;28;20737;-73
2021/12/22 09:28:04;;;;;;;21.20;11.10;;;;;;;2.60;72.93;101390.69;5092291;28;20224;-73
2021/12/22 09:30:35;;;;;;;23.57;11.20;;;;;;;2.79;70.82;101397.13;5092260;28;20221;-73
2021/12/22 09:33:03;;;;;;;34.47;16.13;;;;;;;2.74;69.83;101395.94;5092097;28;20190;-74
2021/12/22 09:35:30;;;;;;;21.97;8.97;;;;;;;2.71;69.96;101389.72;5091529;28;20217;-74
2021/12/22 09:37:58;;;;;;;17.40;8.73;;;;;;;2.63;70.24;101389.22;5092023;28;20248;-74
2021/12/22 09:40:25;;;;;;;17.47;9.77;;;;;;;2.52;70.42;101394.38;5092250;28;20198;-73
2021/12/22 09:42:52;;;;;;;25.30;10.07;;;;;;;2.45;71.47;101388.84;5091831;28;20190;-74
2021/12/22 09:45:23;;;;;;;19.27;10.03;;;;;;;2.56;71.55;101383.56;5091784;28;20582;-73
2021/12/22 09:48:04;;;;;;;17.93;8.87;;;;;;;2.58;70.63;101385.44;5092202;28;20186;-73
2021/12/22 09:50:44;;;;;;;22.40;8.33;;;;;;;2.52;70.24;101373.91;5092942;28;20324;-73
2021/12/22 09:53:13;;;;;;;12.77;6.20;;;;;;;2.44;69.80;101388.75;5091812;28;20198;-74
2021/12/22 09:55:41;;;;;;;19.00;8.23;;;;;;;2.58;70.41;101371.75;5092085;28;20206;-73
2021/12/22 09:58:09;;;;;;;20.90;8.60;;;;;;;2.77;70.71;101375.66;5091669;28;20194;-74
2021/12/22 10:00:37;;;;;;;13.53;7.20;;;;;;;2.84;70.14;101382.06;5091895;28;20190;-73
2021/12/22 10:03:04;;;;;;;24.33;8.20;;;;;;;2.92;70.13;101373.22;5091709;28;20633;-74
2021/12/22 10:05:31;;;;;;;19.67;8.67;;;;;;;2.86;70.08;101368.56;5091121;28;20255;-73
2021/12/22 10:08:08;;;;;;;17.73;7.23;;;;;;;2.91;71.09;101376.56;5091683;28;20201;-73
2021/12/22 10:10:39;;;;;;;17.00;7.10;;;;;;;2.68;69.69;101369.00;5091566;28;20236;-73
2021/12/22 10:13:08;;;;;;;40.67;12.40;;;;;;;2.57;70.03;101370.00;5091823;28;20198;-74
2021/12/22 10:15:36;;;;;;;29.00;9.67;;;;;;;2.26;70.88;101356.78;5091867;28;20259;-73
2021/12/22 10:18:11;;;;;;;24.97;9.87;;;;;;;2.22;71.57;101373.59;5091530;28;20194;-73
2021/12/22 10:20:39;;;;;;;30.67;12.27;;;;;;;2.35;72.53;101363.44;5091519;28;20735;-73
2021/12/22 10:23:20;;;;;;;29.33;10.00;;;;;;;2.39;70.64;101377.31;5091697;28;20194;-74
2021/12/22 10:25:55;;;;;;;28.77;11.77;;;;;;;2.46;69.74;101361.59;5091612;28;20561;-73
2021/12/22 10:28:22;;;;;;;21.47;8.57;;;;;;;2.45;70.69;101357.25;5091720;28;20197;-73
2021/12/22 10:30:55;;;;;;;14.33;7.23;;;;;;;2.46;70.17;101365.00;5092183;28;20221;-72
2021/12/22 10:33:24;;;;;;;22.50;9.60;;;;;;;2.56;69.44;101337.50;5091340;28;20201;-75
2021/12/22 10:35:52;;;;;;;10.27;6.13;;;;;;;2.44;68.01;101353.81;5090576;28;20190;-74
2021/12/22 10:38:22;;;;;;;9.07;5.20;;;;;;;2.46;67.95;101352.22;5091281;28;20237;-74
2021/12/22 10:40:52;;;;;;;14.13;6.90;;;;;;;3.15;100.00;101352.53;5091639;28;20194;-74
2021/12/22 10:43:21;;;;;;;10.23;5.77;;;;;;;2.84;80.51;101343.66;5091951;28;20669;-74
2021/12/22 10:45:50;;;;;;;23.57;8.40;;;;;;;2.85;91.81;101342.88;5091460;28;20221;-72
2021/12/22 10:51:08;;;;;;;17.80;7.77;;;;;;;2.34;71.66;101348.84;5091094;28;20225;-72
2021/12/22 10:53:42;;;;;;;19.90;8.50;;;;;;;1.83;73.70;101342.69;5091119;28;20679;-72
2021/12/22 10:56:10;;;;;;;10.30;5.83;;;;;;;2.00;84.35;101335.41;5091013;28;20224;-73
2021/12/22 10:58:37;;;;;;;19.23;8.43;;;;;;;1.73;77.35;101325.84;5091030;28;20665;-72
2021/12/22 11:01:11;;;;;;;27.20;11.57;;;;;;;1.81;78.12;101324.72;5095143;28;20201;-72
2021/12/22 11:03:43;;;;;;;32.40;12.20;;;;;;;2.08;77.85;101325.72;5094833;28;20194;-72
2021/12/22 11:06:24;;;;;;;20.53;10.43;;;;;;;1.81;77.75;101313.59;5094260;28;20251;-73
2021/12/22 11:08:55;;;;;;;9.77;4.87;;;;;;;1.98;76.45;101334.44;5094666;28;20197;-72
2021/12/22 11:11:26;;;;;;;18.37;9.57;;;;;;;2.12;76.36;101335.38;5094460;28;20225;-72
2021/12/22 11:14:10;;;;;;;34.63;15.33;;;;;;;2.61;100.00;101318.19;5095233;28;20315;-72
2021/12/22 11:16:56;;;;;;;36.30;13.57;;;;;;;2.30;81.68;101323.84;5094896;28;20529;-73
2021/12/22 11:19:24;;;;;;;83.47;27.33;;;;;;;2.21;81.37;101332.56;5094391;28;20225;-69
2021/12/22 11:22:05;;;;;;;64.73;20.80;;;;;;;2.34;80.97;101324.94;5094785;28;20198;-74
2021/12/22 11:24:33;;;;;;;181.77;49.40;;;;;;;2.60;80.47;101319.88;5094375;28;20604;-72